createdAt,value
2023-04-08T00:04:01.228Z,0
2023-04-08T00:09:30.155Z,0
2023-04-08T00:15:03.161Z,0
2023-04-08T00:20:34.605Z,0
2023-04-08T00:26:28.392Z,0
2023-04-08T00:32:07.394Z,0
2023-04-08T00:37:41.415Z,0
2023-04-08T00:42:56.246Z,0
2023-04-08T00:48:43.785Z,0
2023-04-08T00:54:10.989Z,0
2023-04-08T00:59:51.498Z,0
2023-04-08T01:05:03.387Z,3.6
2023-04-08T01:10:45.357Z,4.8
2023-04-08T01:21:39.000Z,2.4
2023-04-08T01:27:15.746Z,0
2023-04-08T01:33:11.280Z,0
2023-04-08T01:38:31.077Z,0
2023-04-08T01:44:14.756Z,0
2023-04-08T01:49:31.356Z,0
2023-04-08T01:55:23.006Z,0
2023-04-08T02:00:42.729Z,0
2023-04-08T02:06:03.524Z,0
2023-04-08T02:11:43.072Z,0
2023-04-08T02:17:06.489Z,0
2023-04-08T02:22:58.512Z,0
2023-04-08T02:28:21.983Z,0
2023-04-08T02:33:51.680Z,0
2023-04-08T02:39:39.939Z,0
2023-04-08T02:45:15.507Z,0
2023-04-08T02:50:25.854Z,0
2023-04-08T02:56:08.373Z,0
2023-04-08T03:01:33.657Z,0
2023-04-08T03:07:08.477Z,0
2023-04-08T03:12:54.948Z,0
2023-04-08T03:18:22.811Z,0
2023-04-08T03:23:55.999Z,0
2023-04-08T03:29:29.530Z,0
2023-04-08T03:34:54.633Z,0
2023-04-08T03:40:19.557Z,0
2023-04-08T03:45:57.578Z,0
2023-04-08T03:57:05.857Z,0
2023-04-08T04:02:36.441Z,0
2023-04-08T04:08:09.369Z,0
2023-04-08T04:13:49.039Z,0
2023-04-08T04:19:23.524Z,0
2023-04-08T04:24:51.794Z,0
2023-04-08T04:30:28.847Z,0
2023-04-08T04:36:00.376Z,0
2023-04-08T04:41:31.985Z,0
2023-04-08T04:47:22.478Z,0
2023-04-08T04:52:32.829Z,0
2023-04-08T04:58:10.690Z,0
2023-04-08T05:03:41.910Z,0
2023-04-08T05:09:13.391Z,0
2023-04-08T05:14:52.410Z,0
2023-04-08T05:20:37.217Z,0
2023-04-08T05:31:32.186Z,0
2023-04-08T05:37:01.576Z,0
2023-04-08T05:42:50.057Z,0
2023-04-08T05:48:05.077Z,0
2023-04-08T05:53:49.850Z,0
2023-04-08T05:59:03.397Z,0
2023-04-08T06:04:45.876Z,0
2023-04-08T06:10:09.163Z,0
2023-04-08T06:21:13.304Z,0
2023-04-08T06:26:51.695Z,0
2023-04-08T06:32:19.969Z,0
2023-04-08T06:38:07.180Z,0
2023-04-08T06:43:52.918Z,0
2023-04-08T06:49:27.700Z,0
2023-04-08T06:54:55.570Z,0
2023-04-08T07:00:23.072Z,0
2023-04-08T07:05:47.517Z,0
2023-04-08T07:17:05.921Z,0
2023-04-08T07:22:45.198Z,0
2023-04-08T07:28:17.796Z,0
2023-04-08T07:33:29.397Z,0
2023-04-08T07:39:07.069Z,3.6
2023-04-08T07:44:36.814Z,2.4
2023-04-08T07:50:33.409Z,4.8
2023-04-08T07:55:57.153Z,5.9
2023-04-08T08:01:24.194Z,5.9
2023-04-08T08:06:59.900Z,4.8
2023-04-08T08:12:46.632Z,4.8
2023-04-08T08:18:22.071Z,5.9
2023-04-08T08:23:38.793Z,0
2023-04-08T08:29:34.515Z,3.6
2023-04-08T08:34:49.714Z,2.4
2023-04-08T08:40:50.223Z,3.6
2023-04-08T08:46:09.503Z,3.6
2023-04-08T08:51:39.413Z,5.9
2023-04-08T08:57:29.948Z,8.4
2023-04-08T09:03:00.498Z,5.9
2023-04-08T09:08:30.462Z,7.2
2023-04-08T09:13:58.902Z,4.8
2023-04-08T09:19:51.550Z,8.4
2023-04-08T09:25:35.191Z,7.2
2023-04-08T09:41:59.174Z,7.2
2023-04-08T09:47:37.848Z,5.9
2023-04-08T09:53:07.238Z,4.8
2023-04-08T09:58:55.245Z,4.8
2023-04-08T10:04:35.034Z,5.9
2023-04-08T10:10:04.290Z,9.6
2023-04-08T10:15:45.733Z,7.2
2023-04-08T10:21:05.385Z,7.2
2023-04-08T10:27:00.621Z,5.9
2023-04-08T10:32:18.205Z,5.9
2023-04-08T10:37:42.720Z,5.9
2023-04-08T10:43:43.203Z,9.6
2023-04-08T10:49:14.247Z,10.7
2023-04-08T10:54:33.742Z,9.6
2023-04-08T11:00:14.437Z,7.2
2023-04-08T11:17:02.693Z,8.4
2023-04-08T11:22:49.167Z,10.7
2023-04-08T11:28:25.518Z,10.7
2023-04-08T11:33:36.690Z,9.6
2023-04-08T11:39:28.400Z,9.6
2023-04-08T11:45:07.215Z,8.4
2023-04-08T11:50:21.215Z,7.2
2023-04-08T11:56:01.862Z,5.9
2023-04-08T12:01:31.412Z,3.6
2023-04-08T12:07:16.965Z,5.9
2023-04-08T12:13:05.358Z,4.8
2023-04-08T12:18:18.358Z,5.9
2023-04-08T12:24:10.959Z,0
2023-04-08T12:29:31.840Z,2.4
2023-04-08T12:35:18.976Z,4.8
2023-04-08T12:40:50.728Z,4.8
2023-04-08T12:52:07.153Z,9.6
2023-04-08T12:57:26.587Z,11.9
2023-04-08T13:03:09.225Z,9.6
2023-04-08T13:14:21.486Z,3.6
2023-04-08T13:19:48.901Z,0
2023-04-08T13:25:22.943Z,3.6
2023-04-08T13:30:51.988Z,2.4
2023-04-08T13:36:31.656Z,3.6
2023-04-08T13:42:07.515Z,2.4
2023-04-08T13:47:43.517Z,0
2023-04-08T13:53:11.484Z,3.6
2023-04-08T13:59:05.582Z,5.9
2023-04-08T14:10:10.472Z,3.6
2023-04-08T14:15:48.914Z,7.2
2023-04-08T14:21:18.671Z,7.2
2023-04-08T14:26:48.755Z,5.9
2023-04-08T14:32:20.612Z,5.9
2023-04-08T14:38:03.557Z,7.2
2023-04-08T14:43:59.433Z,5.9
2023-04-08T14:49:11.755Z,7.2
2023-04-08T14:55:09.056Z,8.4
2023-04-08T15:00:31.554Z,4.8
2023-04-08T15:06:12.524Z,11.9
2023-04-08T15:11:55.540Z,11.9
2023-04-08T15:17:39.924Z,7.2
2023-04-08T15:23:17.673Z,13.2
2023-04-08T15:28:54.065Z,15.6
2023-04-08T15:34:25.783Z,11.9
2023-04-08T15:39:58.287Z,15.6
2023-04-08T15:45:31.886Z,14.4
2023-04-08T16:02:13.940Z,16.8
2023-04-08T16:07:54.708Z,15.6
2023-04-08T16:13:35.113Z,15.6
2023-04-08T16:19:13.475Z,13.2
2023-04-08T16:24:29.522Z,13.2
2023-04-08T16:30:07.448Z,14.4
2023-04-08T16:41:06.912Z,11.9
2023-04-08T16:52:25.622Z,11.9
2023-04-08T16:58:08.994Z,11.9
2023-04-08T17:03:32.352Z,11.9
2023-04-08T17:09:07.160Z,8.4
2023-04-08T17:14:55.263Z,0
2023-04-08T17:20:19.614Z,4.8
2023-04-08T17:31:41.470Z,5.9
2023-04-08T17:37:19.496Z,3.6
2023-04-08T17:43:02.197Z,3.6
2023-04-08T17:48:37.108Z,3.6
2023-04-08T17:53:51.418Z,4.8
2023-04-08T17:59:27.678Z,5.9
2023-04-08T18:05:16.495Z,8.4
2023-04-08T18:10:28.918Z,5.9
2023-04-08T18:16:09.215Z,3.6
2023-04-08T18:22:02.732Z,0
2023-04-08T18:27:16.133Z,0
2023-04-08T18:32:46.010Z,0
2023-04-08T18:38:17.176Z,0
2023-04-08T18:43:53.260Z,0
2023-04-08T18:49:52.883Z,3.6
2023-04-08T18:55:26.020Z,4.8
2023-04-08T19:00:36.087Z,0
2023-04-08T19:17:36.960Z,0
2023-04-08T19:23:06.197Z,0
2023-04-08T19:28:30.711Z,5.9
2023-04-08T19:34:21.592Z,8.4
2023-04-08T19:39:34.140Z,8.4
2023-04-08T19:45:32.615Z,5.9
2023-04-08T19:50:46.758Z,3.6
2023-04-08T19:56:24.430Z,0
2023-04-08T20:01:55.329Z,4.8
2023-04-08T20:07:39.174Z,5.9
2023-04-08T20:13:13.746Z,4.8
2023-04-08T20:18:48.471Z,0
2023-04-08T20:24:16.880Z,4.8
2023-04-08T20:29:54.548Z,3.6
2023-04-08T20:35:30.240Z,8.4
2023-04-08T20:41:09.210Z,3.6
2023-04-08T20:52:05.508Z,2.4
2023-04-08T20:57:43.992Z,5.9
2023-04-08T21:03:06.971Z,4.8
2023-04-08T21:08:58.991Z,0
2023-04-08T21:14:23.993Z,0
2023-04-08T21:19:45.079Z,0
2023-04-08T21:25:36.797Z,0
2023-04-08T21:30:59.499Z,0
2023-04-08T21:42:18.343Z,0
2023-04-08T21:47:31.622Z,0
2023-04-08T21:53:01.903Z,0
2023-04-08T21:58:52.363Z,0
2023-04-08T22:04:19.420Z,0
2023-04-08T22:10:04.735Z,0
2023-04-08T22:15:11.351Z,0
2023-04-08T22:20:43.219Z,0
2023-04-08T22:26:21.776Z,0
2023-04-08T22:32:03.394Z,3.6
2023-04-08T22:37:46.250Z,2.4
2023-04-08T22:43:06.515Z,0
2023-04-08T22:48:29.920Z,0
2023-04-08T22:54:05.103Z,0
2023-04-08T22:59:55.840Z,0
2023-04-08T23:05:34.678Z,0
2023-04-08T23:10:40.708Z,0
2023-04-08T23:16:26.739Z,0
2023-04-08T23:21:59.466Z,0
2023-04-08T23:27:37.575Z,0
2023-04-08T23:33:07.035Z,0
2023-04-08T23:38:41.875Z,0
2023-04-08T23:44:18.460Z,0
2023-04-08T23:49:39.200Z,0
2023-04-08T23:55:13.006Z,0
